Time;durP1;ratioP1;P1;durP2;ratioP2;P2;SDS_P1;SDS_P2;PMS_P1;PMS_P2;Temp;Humidity;BMP_temperature;BMP_pressure;BME280_temperature;BME280_humidity;BME280_pressure;Samples;Min_cycle;Max_cycle;Signal;HPM_P1;HPM_P2
2021/07/03 00:00:07;;;;;;;8.97;8.17;;;16.40;73.50;;;;;;5037449;28;20510;-79
2021/07/03 00:02:33;;;;;;;9.63;8.63;;;16.40;73.50;;;;;;5039616;28;20482;-78
2021/07/03 00:05:00;;;;;;;9.00;8.13;;;16.40;73.80;;;;;;5038252;28;20451;-79
2021/07/03 00:07:27;;;;;;;12.33;8.70;;;16.30;74.90;;;;;;5037868;28;20475;-79
2021/07/03 00:09:54;;;;;;;8.83;7.83;;;16.30;75.00;;;;;;5041962;28;20453;-79
2021/07/03 00:12:22;;;;;;;10.17;8.30;;;16.30;74.90;;;;;;5042512;28;20544;-78
2021/07/03 00:14:50;;;;;;;9.23;8.03;;;16.20;75.60;;;;;;5041977;28;20530;-78
2021/07/03 00:17:17;;;;;;;9.20;8.30;;;16.20;75.50;;;;;;5044384;28;20866;-79
2021/07/03 00:19:44;;;;;;;9.60;8.23;;;16.20;75.20;;;;;;5042754;28;20490;-79
2021/07/03 00:22:11;;;;;;;9.18;8.30;;;16.10;75.20;;;;;;5041391;28;20493;-79
2021/07/03 00:24:37;;;;;;;9.57;8.67;;;16.10;76.00;;;;;;5042872;28;20207;-79
2021/07/03 00:27:05;;;;;;;9.30;8.23;;;16.10;76.00;;;;;;5043808;28;20557;-79
2021/07/03 00:29:33;;;;;;;9.53;8.63;;;16.10;76.10;;;;;;5045631;28;20506;-79
2021/07/03 00:32:01;;;;;;;11.10;8.50;;;16.10;76.70;;;;;;5058902;28;20732;-79
2021/07/03 00:34:28;;;;;;;12.43;8.27;;;16.10;76.50;;;;;;5048873;28;20466;-78
2021/07/03 00:36:55;;;;;;;9.40;8.50;;;16.00;76.60;;;;;;5053172;28;20497;-79
2021/07/03 00:39:22;;;;;;;9.40;8.43;;;16.00;77.10;;;;;;5057392;28;20438;-79
2021/07/03 00:41:49;;;;;;;10.33;8.87;;;15.90;78.00;;;;;;5048711;28;20486;-79
2021/07/03 00:44:29;;;;;;;11.43;9.50;;;15.90;78.70;;;;;;5043600;28;20454;-79
2021/07/03 00:46:59;;;;;;;10.07;8.63;;;15.90;78.20;;;;;;5043948;28;20481;-79
2021/07/03 00:49:26;;;;;;;11.73;8.97;;;15.90;79.00;;;;;;5042983;28;20537;-79
2021/07/03 00:51:54;;;;;;;10.60;9.57;;;15.90;79.60;;;;;;5042962;28;20486;-79
2021/07/03 00:54:22;;;;;;;9.57;8.52;;;15.80;80.30;;;;;;5043129;28;20520;-79
2021/07/03 00:57:01;;;;;;;9.80;8.47;;;15.80;80.20;;;;;;5073923;22;20230;-81
2021/07/03 00:59:33;;;;;;;9.48;8.48;;;15.70;80.20;;;;;;5050679;28;20969;-81
2021/07/03 01:02:01;;;;;;;10.37;7.90;;;15.70;80.80;;;;;;5051066;28;20222;-81
2021/07/03 01:04:28;;;;;;;12.88;9.88;;;15.70;81.50;;;;;;5051181;28;20441;-82
2021/07/03 01:06:57;;;;;;;10.83;9.43;;;15.70;81.50;;;;;;5053111;28;20229;-81
2021/07/03 01:09:25;;;;;;;10.03;8.73;;;15.60;81.50;;;;;;5056880;28;20458;-80
2021/07/03 01:11:52;;;;;;;11.43;9.10;;;15.60;82.20;;;;;;5058233;28;20476;-81
2021/07/03 01:14:19;;;;;;;11.20;9.50;;;15.50;82.40;;;;;;5058045;28;20424;-81
2021/07/03 01:16:47;;;;;;;9.77;8.75;;;15.50;82.80;;;;;;5058588;28;20485;-80
2021/07/03 01:19:17;;;;;;;10.63;9.53;;;15.50;82.90;;;;;;5054095;28;20211;-81
2021/07/03 01:21:48;;;;;;;10.37;8.33;;;15.40;83.10;;;;;;5054081;28;20474;-82
2021/07/03 01:24:15;;;;;;;13.85;9.43;;;15.40;82.80;;;;;;5051921;28;20469;-81
2021/07/03 01:26:43;;;;;;;10.60;8.43;;;15.20;83.00;;;;;;5052563;28;20231;-82
2021/07/03 01:29:11;;;;;;;9.50;8.47;;;15.20;83.90;;;;;;5050939;28;20450;-80
2021/07/03 01:31:41;;;;;;;10.00;8.37;;;15.20;84.10;;;;;;5050754;28;20462;-82
2021/07/03 01:34:08;;;;;;;10.83;8.77;;;15.20;86.00;;;;;;5042515;28;21015;-81
2021/07/03 01:36:36;;;;;;;9.70;8.80;;;15.20;86.90;;;;;;5040502;28;20557;-81
2021/07/03 01:39:05;;;;;;;10.52;9.43;;;15.20;87.70;;;;;;5040930;28;20458;-82
2021/07/03 01:41:32;;;;;;;12.30;9.50;;;15.20;87.80;;;;;;5040458;28;20250;-83
2021/07/03 01:43:59;;;;;;;10.30;9.20;;;15.20;89.20;;;;;;5040116;28;20494;-82
2021/07/03 01:46:26;;;;;;;10.57;8.23;;;15.20;89.40;;;;;;5040295;28;20492;-82
2021/07/03 01:48:53;;;;;;;9.60;8.70;;;15.20;89.50;;;;;;5044203;28;20519;-81
2021/07/03 01:51:20;;;;;;;12.35;8.90;;;15.20;89.40;;;;;;5043946;28;20439;-82
2021/07/03 01:53:47;;;;;;;10.45;8.32;;;15.10;89.90;;;;;;5048416;28;20231;-81
2021/07/03 01:56:16;;;;;;;13.90;9.57;;;15.00;90.30;;;;;;5050035;28;20369;-81
2021/07/03 01:58:42;;;;;;;10.60;9.02;;;15.00;90.70;;;;;;5048509;28;20192;-81
2021/07/03 02:01:10;;;;;;;11.27;8.73;;;14.90;90.60;;;;;;5040190;28;20255;-79
2021/07/03 02:03:37;;;;;;;9.93;8.70;;;14.90;90.00;;;;;;5042220;28;20200;-80
2021/07/03 02:06:04;;;;;;;11.35;8.30;;;14.90;90.00;;;;;;5049936;28;20230;-80
2021/07/03 02:08:32;;;;;;;9.07;8.18;;;14.80;90.20;;;;;;5053155;28;20326;-84
2021/07/03 02:10:59;;;;;;;10.02;8.88;;;14.80;90.40;;;;;;5056065;28;20235;-81
2021/07/03 02:13:28;;;;;;;8.80;7.95;;;14.90;90.20;;;;;;5056366;28;20195;-84
2021/07/03 02:15:55;;;;;;;9.65;8.75;;;14.80;90.20;;;;;;5058064;28;20184;-81
2021/07/03 02:18:23;;;;;;;9.52;8.40;;;14.80;90.90;;;;;;5056376;28;20223;-82
2021/07/03 02:20:50;;;;;;;10.63;9.15;;;14.80;91.40;;;;;;5051098;28;20207;-81
2021/07/03 02:23:19;;;;;;;8.73;7.72;;;14.70;91.20;;;;;;5057633;28;20187;-85
2021/07/03 02:25:47;;;;;;;10.02;8.65;;;14.70;91.40;;;;;;5059515;28;20183;-84
2021/07/03 02:28:14;;;;;;;10.07;8.00;;;14.70;91.30;;;;;;5054050;28;20231;-81
2021/07/03 02:30:43;;;;;;;9.33;8.23;;;14.70;91.50;;;;;;5051028;28;20203;-81
2021/07/03 02:33:12;;;;;;;10.02;8.77;;;14.70;91.40;;;;;;5054893;28;20462;-82
2021/07/03 02:35:39;;;;;;;9.95;8.77;;;14.70;91.50;;;;;;5052522;28;20211;-80
2021/07/03 02:38:07;;;;;;;10.65;7.95;;;14.80;91.10;;;;;;5043102;28;20564;-79
2021/07/03 02:40:34;;;;;;;11.57;8.93;;;14.80;90.40;;;;;;5053065;28;20207;-80
2021/07/03 02:43:01;;;;;;;9.97;8.97;;;14.80;90.20;;;;;;5054008;28;20757;-81
2021/07/03 02:45:28;;;;;;;13.32;8.77;;;14.70;90.60;;;;;;5053870;28;20444;-81
2021/07/03 02:47:56;;;;;;;9.55;8.50;;;14.70;91.00;;;;;;5054618;28;20221;-81
2021/07/03 02:50:23;;;;;;;9.43;8.02;;;14.60;91.00;;;;;;5052680;28;20222;-81
2021/07/03 02:52:51;;;;;;;11.50;8.83;;;14.60;91.20;;;;;;5053930;28;20214;-81
2021/07/03 02:55:18;;;;;;;8.70;7.80;;;14.60;91.30;;;;;;5055124;28;20410;-81
2021/07/03 02:57:45;;;;;;;10.25;7.97;;;14.60;91.60;;;;;;5041531;28;20714;-82
2021/07/03 03:00:15;;;;;;;10.68;7.97;;;14.60;91.60;;;;;;5050672;28;20227;-80
2021/07/03 03:02:42;;;;;;;9.63;8.55;;;14.60;91.50;;;;;;5053227;28;20211;-82
2021/07/03 03:05:12;;;;;;;9.88;8.65;;;14.60;91.80;;;;;;5052360;28;20219;-82
2021/07/03 03:07:41;;;;;;;10.50;8.57;;;14.50;92.00;;;;;;5053434;28;20702;-81
2021/07/03 03:10:12;;;;;;;9.55;8.35;;;14.50;91.90;;;;;;5053670;28;20195;-81
2021/07/03 03:12:39;;;;;;;8.95;8.05;;;14.40;91.90;;;;;;5050887;28;20187;-81
2021/07/03 03:15:07;;;;;;;11.77;8.57;;;14.40;91.90;;;;;;5050614;28;20261;-82
2021/07/03 03:17:34;;;;;;;9.25;8.35;;;14.30;92.20;;;;;;5049392;28;20219;-81
2021/07/03 03:20:02;;;;;;;11.40;8.82;;;14.30;92.60;;;;;;5050099;28;20233;-81
2021/07/03 03:22:30;;;;;;;9.73;8.82;;;14.30;93.00;;;;;;5049750;28;20227;-82
2021/07/03 03:24:57;;;;;;;9.75;8.70;;;14.30;93.10;;;;;;5049359;28;20229;-82
2021/07/03 03:27:25;;;;;;;10.95;9.43;;;14.20;93.00;;;;;;5050220;28;20299;-81
2021/07/03 03:29:52;;;;;;;11.27;8.88;;;14.20;93.40;;;;;;5049105;28;20211;-82
2021/07/03 03:32:19;;;;;;;9.68;8.27;;;14.20;93.00;;;;;;5050027;28;20198;-80
2021/07/03 03:34:46;;;;;;;9.88;8.50;;;14.20;93.00;;;;;;5048949;28;20211;-82
2021/07/03 03:37:13;;;;;;;8.57;7.68;;;14.20;93.00;;;;;;5050343;28;20227;-82
2021/07/03 03:39:42;;;;;;;9.65;8.45;;;14.20;93.00;;;;;;5053793;28;20211;-81
2021/07/03 03:42:09;;;;;;;13.77;8.90;;;14.20;93.10;;;;;;5052722;28;20281;-80
2021/07/03 03:44:36;;;;;;;9.35;8.35;;;14.20;93.00;;;;;;5045363;28;20253;-81
2021/07/03 03:47:04;;;;;;;10.85;8.40;;;14.20;93.00;;;;;;5044439;28;20250;-81
2021/07/03 03:49:30;;;;;;;8.68;7.80;;;14.20;93.00;;;;;;5043984;28;20207;-81
2021/07/03 03:51:58;;;;;;;10.30;8.63;;;14.20;92.80;;;;;;5047772;28;20206;-81
2021/07/03 03:54:25;;;;;;;12.68;9.05;;;14.20;92.60;;;;;;5048088;28;20207;-81
2021/07/03 03:59:34;;;;;;;9.38;8.40;;;14.30;91.90;;;;;;5052539;28;20203;-83
2021/07/03 04:02:01;;;;;;;8.02;7.22;;;14.30;91.70;;;;;;5049198;28;20291;-81
2021/07/03 04:04:28;;;;;;;9.43;8.20;;;14.40;91.70;;;;;;5043756;28;20632;-80
2021/07/03 04:06:55;;;;;;;10.45;8.57;;;14.40;91.00;;;;;;5043547;28;20672;-83
2021/07/03 04:09:22;;;;;;;10.73;8.10;;;14.50;90.70;;;;;;5042934;28;20239;-80
2021/07/03 04:11:49;;;;;;;12.77;8.20;;;14.50;90.00;;;;;;5041030;28;20234;-80
2021/07/03 04:14:17;;;;;;;9.35;8.35;;;14.50;89.50;;;;;;5048305;28;20214;-80
2021/07/03 04:16:44;;;;;;;9.02;8.10;;;14.40;89.50;;;;;;5049839;28;20219;-81
2021/07/03 04:19:11;;;;;;;9.45;8.45;;;14.40;90.30;;;;;;5053833;28;20194;-80
2021/07/03 04:21:38;;;;;;;12.10;8.93;;;14.50;90.30;;;;;;5056217;28;20230;-81
2021/07/03 04:24:06;;;;;;;11.18;8.00;;;14.50;89.90;;;;;;5056700;28;20217;-80
2021/07/03 04:26:33;;;;;;;9.35;8.45;;;14.60;88.90;;;;;;5057207;28;20231;-80
2021/07/03 04:29:00;;;;;;;9.82;7.25;;;14.60;88.90;;;;;;5056764;28;20199;-80
2021/07/03 04:31:29;;;;;;;9.98;8.75;;;14.70;87.70;;;;;;5056239;28;20233;-80
2021/07/03 04:33:56;;;;;;;9.88;8.30;;;14.80;86.10;;;;;;5055520;28;20219;-79
2021/07/03 04:36:23;;;;;;;8.65;7.85;;;14.80;84.40;;;;;;5056384;28;20202;-81
2021/07/03 04:38:50;;;;;;;9.75;7.90;;;14.90;84.00;;;;;;5056636;28;20192;-81
2021/07/03 04:41:20;;;;;;;8.55;7.65;;;15.00;82.40;;;;;;5057125;28;20246;-81
2021/07/03 04:43:47;;;;;;;8.45;7.63;;;15.10;81.70;;;;;;5057000;28;20187;-80
2021/07/03 04:46:14;;;;;;;7.88;6.97;;;15.30;81.10;;;;;;5056637;28;20190;-79
2021/07/03 04:48:43;;;;;;;9.40;8.50;;;15.40;78.30;;;;;;5053413;28;20670;-79
2021/07/03 04:51:10;;;;;;;9.80;7.00;;;15.50;78.20;;;;;;5045700;28;20215;-79
2021/07/03 04:53:36;;;;;;;9.65;7.03;;;15.80;76.40;;;;;;5037743;28;20235;-81
2021/07/03 04:56:04;;;;;;;6.97;6.27;;;16.30;72.60;;;;;;5043765;28;20216;-81
2021/07/03 04:58:30;;;;;;;6.90;6.17;;;17.00;67.40;;;;;;5043156;28;20485;-80
2021/07/03 05:00:57;;;;;;;9.07;5.63;;;18.00;60.50;;;;;;5043543;28;20793;-81
2021/07/03 05:03:24;;;;;;;6.20;5.50;;;18.80;56.30;;;;;;5043570;28;20499;-81
2021/07/03 05:05:53;;;;;;;11.63;6.00;;;19.50;53.80;;;;;;5043695;28;20453;-81
2021/07/03 05:08:20;;;;;;;6.73;6.13;;;20.00;49.00;;;;;;5044164;28;20492;-81
2021/07/03 05:10:47;;;;;;;7.03;6.33;;;19.40;50.10;;;;;;5043275;28;20456;-81
2021/07/03 05:13:14;;;;;;;5.50;5.00;;;18.60;53.40;;;;;;5043742;28;20524;-81
2021/07/03 05:15:41;;;;;;;7.60;5.97;;;18.80;54.30;;;;;;5042596;28;20491;-80
2021/07/03 05:18:07;;;;;;;9.43;5.67;;;18.60;54.80;;;;;;5043224;28;20605;-81
2021/07/03 05:20:35;;;;;;;6.53;5.93;;;19.30;52.50;;;;;;5045805;28;20460;-81
2021/07/03 05:23:03;;;;;;;5.97;5.33;;;19.00;52.30;;;;;;5048896;28;20489;-80
2021/07/03 05:25:30;;;;;;;6.03;5.00;;;19.60;53.10;;;;;;5049418;28;20444;-81
2021/07/03 05:27:57;;;;;;;6.50;5.90;;;20.70;49.50;;;;;;5053889;28;20442;-82
2021/07/03 05:30:25;;;;;;;5.60;5.10;;;21.40;46.10;;;;;;5055634;28;20889;-81
2021/07/03 05:32:52;;;;;;;7.10;5.50;;;22.00;43.40;;;;;;5054348;28;20469;-81
2021/07/03 05:35:19;;;;;;;8.03;5.00;;;22.50;41.10;;;;;;5045328;28;20513;-80
2021/07/03 05:37:46;;;;;;;7.20;6.50;;;22.30;41.50;;;;;;5045168;28;20471;-80
2021/07/03 05:40:16;;;;;;;5.90;5.40;;;21.00;44.80;;;;;;5048464;28;20437;-80
2021/07/03 05:42:44;;;;;;;6.07;5.43;;;20.90;46.30;;;;;;5057630;28;20470;-81
2021/07/03 05:45:14;;;;;;;10.63;5.37;;;21.30;44.60;;;;;;5050655;28;20406;-80
2021/07/03 05:47:41;;;;;;;5.97;5.37;;;22.40;41.90;;;;;;5052551;28;20468;-81
2021/07/03 05:50:09;;;;;;;6.17;4.97;;;22.00;42.70;;;;;;5056198;28;20417;-81
2021/07/03 05:52:37;;;;;;;6.17;5.57;;;21.80;43.30;;;;;;5056750;28;20568;-82
2021/07/03 05:55:05;;;;;;;6.60;5.67;;;21.90;42.40;;;;;;5046184;28;20417;-80
2021/07/03 05:57:33;;;;;;;6.60;5.47;;;21.20;44.60;;;;;;5045943;28;20496;-80
2021/07/03 06:00:00;;;;;;;5.40;5.00;;;22.30;42.20;;;;;;5045351;28;20450;-80
2021/07/03 06:02:27;;;;;;;7.70;5.40;;;23.60;39.90;;;;;;5045875;28;20489;-80
2021/07/03 06:04:54;;;;;;;5.80;5.20;;;23.90;37.60;;;;;;5055236;28;20497;-79
2021/07/03 06:07:21;;;;;;;6.13;4.70;;;23.10;39.70;;;;;;5056462;28;20533;-80
2021/07/03 06:09:48;;;;;;;7.47;5.33;;;24.10;38.20;;;;;;5058232;28;20469;-80
2021/07/03 06:12:15;;;;;;;6.70;5.33;;;24.50;36.80;;;;;;5058104;28;20454;-83
2021/07/03 06:14:44;;;;;;;6.10;5.50;;;24.10;37.50;;;;;;5058827;28;20467;-81
2021/07/03 06:17:13;;;;;;;7.20;5.40;;;24.20;36.50;;;;;;5058693;28;20486;-80
2021/07/03 06:19:41;;;;;;;5.33;4.83;;;24.50;36.10;;;;;;5058719;28;20435;-80
2021/07/03 06:22:11;;;;;;;6.27;5.77;;;24.60;35.90;;;;;;5059043;28;20489;-85
2021/07/03 06:24:39;;;;;;;5.57;5.07;;;25.10;34.10;;;;;;5059380;28;20496;-86
2021/07/03 06:27:06;;;;;;;6.03;4.97;;;25.30;33.80;;;;;;5059089;28;20467;-84
2021/07/03 06:29:34;;;;;;;4.80;4.40;;;25.00;35.10;;;;;;5059071;28;20443;-80
2021/07/03 06:32:04;;;;;;;7.00;5.57;;;25.10;34.50;;;;;;5058458;28;20525;-82
2021/07/03 06:34:36;;;;;;;5.10;4.60;;;24.90;35.30;;;;;;5058765;28;20451;-80
2021/07/03 06:37:03;;;;;;;4.83;4.43;;;24.90;34.30;;;;;;5057717;28;20533;-80
2021/07/03 06:39:30;;;;;;;5.20;4.80;;;24.80;34.00;;;;;;5058658;28;20406;-80
2021/07/03 06:41:57;;;;;;;5.77;5.27;;;25.10;34.20;;;;;;5058805;28;20444;-80
2021/07/03 06:44:25;;;;;;;5.57;5.00;;;25.10;34.20;;;;;;5058584;28;20459;-80
2021/07/03 06:46:52;;;;;;;5.10;4.60;;;24.50;35.30;;;;;;5058546;28;20479;-81
2021/07/03 06:49:20;;;;;;;5.47;4.97;;;23.70;37.10;;;;;;5057481;28;20476;-82
2021/07/03 06:51:47;;;;;;;5.53;4.77;;;24.60;35.60;;;;;;5058383;28;20405;-80
2021/07/03 06:54:15;;;;;;;5.07;4.43;;;25.20;34.10;;;;;;5057372;28;20443;-81
2021/07/03 06:56:42;;;;;;;8.43;5.40;;;23.60;37.40;;;;;;5078439;22;20441;-81
2021/07/03 06:59:09;;;;;;;5.60;5.10;;;23.60;37.10;;;;;;5026888;28;20425;-82
2021/07/03 07:01:36;;;;;;;4.90;4.50;;;24.20;35.90;;;;;;5027238;28;20444;-82
2021/07/03 07:04:03;;;;;;;6.27;5.10;;;23.60;36.80;;;;;;5027357;28;20479;-81
2021/07/03 07:06:33;;;;;;;6.60;6.00;;;22.40;40.60;;;;;;5028403;28;20437;-81
2021/07/03 07:09:00;;;;;;;6.30;5.80;;;22.90;39.60;;;;;;5027493;28;20993;-80
2021/07/03 07:11:28;;;;;;;6.57;5.97;;;22.20;40.90;;;;;;5028807;28;20528;-82
2021/07/03 07:13:55;;;;;;;6.10;5.50;;;22.40;41.00;;;;;;5030208;28;20427;-81
2021/07/03 07:16:21;;;;;;;7.03;6.20;;;22.50;41.10;;;;;;5031517;28;20423;-79
2021/07/03 07:18:48;;;;;;;8.37;6.43;;;22.40;41.00;;;;;;5037908;28;20444;-80
2021/07/03 07:21:15;;;;;;;6.10;5.60;;;21.80;41.10;;;;;;5038112;28;20442;-79
2021/07/03 07:23:44;;;;;;;6.43;5.33;;;22.10;40.80;;;;;;5037178;28;20454;-79
2021/07/03 07:26:11;;;;;;;8.20;5.47;;;21.70;41.80;;;;;;5037896;28;20456;-78
2021/07/03 07:28:38;;;;;;;6.63;5.70;;;21.70;42.50;;;;;;5028798;28;20972;-81
2021/07/03 07:31:05;;;;;;;6.67;6.07;;;22.00;42.20;;;;;;5027139;28;20439;-81
2021/07/03 07:33:32;;;;;;;6.63;5.93;;;22.40;41.00;;;;;;5027483;28;20506;-81
2021/07/03 07:35:59;;;;;;;6.10;5.60;;;22.30;41.00;;;;;;5025680;28;20454;-79
2021/07/03 07:38:26;;;;;;;6.13;5.53;;;22.30;41.00;;;;;;5025236;28;20479;-81
2021/07/03 07:40:55;;;;;;;6.20;5.60;;;22.60;41.20;;;;;;5024964;28;20471;-81
2021/07/03 07:43:22;;;;;;;6.50;5.87;;;22.80;40.60;;;;;;5027358;28;20520;-79
2021/07/03 07:45:49;;;;;;;7.13;5.90;;;22.30;41.00;;;;;;5025829;28;20559;-80
2021/07/03 07:48:16;;;;;;;7.00;6.30;;;22.40;41.00;;;;;;5034671;28;20477;-79
2021/07/03 07:50:43;;;;;;;8.13;6.67;;;22.40;41.70;;;;;;5038054;28;20437;-79
2021/07/03 07:53:10;;;;;;;9.20;6.33;;;21.90;42.90;;;;;;5036359;28;20435;-81
2021/07/03 07:55:37;;;;;;;6.70;5.67;;;22.00;43.00;;;;;;5031221;28;20517;-80
2021/07/03 07:58:06;;;;;;;10.87;6.13;;;22.40;42.00;;;;;;5032367;28;20459;-80
2021/07/03 08:00:33;;;;;;;6.33;5.73;;;22.50;41.10;;;;;;5030764;28;20490;-81
2021/07/03 08:03:00;;;;;;;7.37;6.57;;;22.40;41.40;;;;;;5026051;28;20553;-82
2021/07/03 08:05:27;;;;;;;6.23;5.73;;;22.40;41.00;;;;;;5026892;28;20961;-79
2021/07/03 08:07:54;;;;;;;6.20;5.60;;;22.50;41.10;;;;;;5037763;28;20492;-79
2021/07/03 08:10:21;;;;;;;5.70;5.00;;;22.80;40.90;;;;;;5031156;28;20433;-81
2021/07/03 08:12:48;;;;;;;5.77;5.10;;;22.90;39.80;;;;;;5035002;28;20451;-78
2021/07/03 08:15:17;;;;;;;6.00;5.40;;;23.00;40.10;;;;;;5037585;28;20431;-79
2021/07/03 08:17:44;;;;;;;6.70;5.93;;;22.80;41.40;;;;;;5037391;28;20709;-79
2021/07/03 08:20:14;;;;;;;5.97;5.40;;;22.80;41.20;;;;;;5033458;28;20422;-81
2021/07/03 08:22:41;;;;;;;5.67;5.17;;;23.00;39.10;;;;;;5029836;28;20798;-79
2021/07/03 08:25:09;;;;;;;6.20;5.60;;;23.10;38.90;;;;;;5028872;28;20431;-81
2021/07/03 08:27:36;;;;;;;5.50;5.00;;;23.30;38.10;;;;;;5027825;28;20501;-81
2021/07/03 08:30:06;;;;;;;6.90;5.43;;;23.40;37.80;;;;;;5030419;28;20463;-81
2021/07/03 08:32:35;;;;;;;5.23;4.83;;;23.20;37.50;;;;;;5031350;28;20463;-81
2021/07/03 08:35:01;;;;;;;7.43;5.30;;;23.50;36.40;;;;;;5031443;28;20457;-81
2021/07/03 08:37:28;;;;;;;5.70;5.23;;;23.60;37.30;;;;;;5030613;28;20502;-81
2021/07/03 08:39:55;;;;;;;5.20;4.70;;;23.60;36.10;;;;;;5035506;28;20433;-80
2021/07/03 08:42:22;;;;;;;5.60;4.97;;;23.60;36.10;;;;;;5040235;28;20435;-81
2021/07/03 08:44:51;;;;;;;5.70;5.20;;;23.70;35.90;;;;;;5030166;28;20509;-81
2021/07/03 08:47:19;;;;;;;8.13;5.17;;;23.60;35.70;;;;;;5035817;28;20459;-80
2021/07/03 08:49:53;;;;;;;5.30;4.90;;;23.70;35.70;;;;;;5038458;28;20424;-79
2021/07/03 08:52:20;;;;;;;5.50;5.00;;;23.80;35.90;;;;;;5041180;28;20428;-80
2021/07/03 08:54:55;;;;;;;5.77;5.27;;;24.00;34.70;;;;;;5037215;28;20453;-79
2021/07/03 08:57:21;;;;;;;6.10;5.60;;;23.80;35.00;;;;;;5032984;28;20520;-81
2021/07/03 08:59:55;;;;;;;5.57;5.07;;;24.20;33.50;;;;;;5038312;28;20458;-79
2021/07/03 09:02:33;;;;;;;5.43;4.93;;;24.30;32.50;;;;;;5040705;28;20979;-80
2021/07/03 09:05:01;;;;;;;6.17;4.70;;;24.60;32.80;;;;;;5040165;28;20470;-80
2021/07/03 09:07:34;;;;;;;5.63;5.03;;;24.30;34.50;;;;;;5039626;28;20470;-79
2021/07/03 09:10:03;;;;;;;5.53;4.90;;;24.10;33.40;;;;;;5031641;28;20444;-80
2021/07/03 09:12:32;;;;;;;6.43;5.30;;;24.10;33.90;;;;;;5027837;28;20430;-80
2021/07/03 09:15:10;;;;;;;5.03;4.53;;;24.40;33.20;;;;;;5027939;28;20428;-80
2021/07/03 09:17:46;;;;;;;5.70;5.13;;;24.50;32.70;;;;;;5028914;28;20480;-80
2021/07/03 09:20:21;;;;;;;5.43;4.93;;;24.40;32.60;;;;;;5031320;28;20429;-80
2021/07/03 09:22:48;;;;;;;5.63;4.50;;;24.30;32.50;;;;;;5037915;28;20443;-81
2021/07/03 09:25:19;;;;;;;5.67;5.17;;;24.70;32.80;;;;;;5035231;28;20443;-80
2021/07/03 09:27:46;;;;;;;5.20;4.83;;;24.80;32.90;;;;;;5036335;28;20470;-81
2021/07/03 09:30:19;;;;;;;5.53;4.90;;;25.10;32.00;;;;;;5034241;28;20464;-81
2021/07/03 09:32:50;;;;;;;5.63;5.03;;;24.80;30.90;;;;;;5031994;28;20446;-81
2021/07/03 09:35:19;;;;;;;5.67;5.17;;;25.20;30.80;;;;;;5034328;28;20435;-80
2021/07/03 09:37:46;;;;;;;5.23;4.80;;;24.90;29.60;;;;;;5038464;28;20465;-79
2021/07/03 09:40:14;;;;;;;5.20;4.70;;;25.10;28.70;;;;;;5034107;28;20733;-81
2021/07/03 09:42:42;;;;;;;6.20;4.60;;;25.30;29.20;;;;;;5038150;28;20448;-78
2021/07/03 09:45:11;;;;;;;4.80;4.40;;;25.50;29.10;;;;;;5038908;28;20444;-81
2021/07/03 09:47:39;;;;;;;4.80;4.50;;;24.90;30.00;;;;;;5027535;28;20467;-79
2021/07/03 09:50:08;;;;;;;5.37;4.83;;;25.20;29.40;;;;;;5027745;28;20751;-83
2021/07/03 09:52:38;;;;;;;5.93;5.43;;;25.20;29.20;;;;;;5026517;28;20437;-81
2021/07/03 09:55:06;;;;;;;5.00;4.57;;;25.10;29.30;;;;;;5036535;28;20497;-79
2021/07/03 09:57:37;;;;;;;5.93;4.30;;;25.30;28.60;;;;;;5038500;28;20572;-79
2021/07/03 10:00:08;;;;;;;5.20;4.80;;;25.60;27.80;;;;;;5039202;28;20460;-79
2021/07/03 10:02:35;;;;;;;5.37;4.87;;;25.80;27.90;;;;;;5039577;28;20457;-79
2021/07/03 10:05:02;;;;;;;5.03;4.53;;;26.10;27.50;;;;;;5039359;28;20517;-79
2021/07/03 10:07:36;;;;;;;4.50;4.10;;;26.40;26.20;;;;;;5039417;28;20491;-79
2021/07/03 10:10:09;;;;;;;5.17;4.67;;;26.30;26.20;;;;;;5039556;28;20502;-79
2021/07/03 10:12:39;;;;;;;5.17;4.67;;;26.50;25.20;;;;;;5038665;28;20458;-80
2021/07/03 10:15:07;;;;;;;5.00;4.50;;;26.60;26.50;;;;;;5038086;28;20458;-80
2021/07/03 10:17:36;;;;;;;4.13;3.83;;;26.80;24.30;;;;;;5036222;28;20475;-81
2021/07/03 10:20:07;;;;;;;5.63;4.80;;;26.80;25.30;;;;;;5033837;28;20440;-80
2021/07/03 10:22:36;;;;;;;5.00;4.60;;;27.40;24.90;;;;;;5031006;28;20455;-81
2021/07/03 10:25:15;;;;;;;4.13;3.83;;;27.90;24.20;;;;;;5026981;28;20518;-79
2021/07/03 10:27:52;;;;;;;5.17;4.77;;;28.00;24.30;;;;;;5024715;28;20525;-80
2021/07/03 10:30:25;;;;;;;4.90;4.50;;;28.30;22.80;;;;;;5023993;28;20870;-80
2021/07/03 10:32:59;;;;;;;4.80;4.37;;;27.70;24.20;;;;;;5028565;28;20427;-82
2021/07/03 10:35:27;;;;;;;4.60;4.07;;;27.70;23.80;;;;;;5026911;28;20457;-80
2021/07/03 10:37:55;;;;;;;5.03;4.63;;;27.90;23.10;;;;;;5026185;28;20511;-82
2021/07/03 10:40:25;;;;;;;4.17;3.87;;;28.10;23.20;;;;;;5026929;28;20525;-80
2021/07/03 10:42:53;;;;;;;5.20;4.70;;;28.20;23.00;;;;;;5026013;28;20461;-80
2021/07/03 10:45:23;;;;;;;4.77;4.37;;;28.20;23.20;;;;;;5025136;28;20490;-82
2021/07/03 10:47:50;;;;;;;5.00;4.50;;;28.00;23.50;;;;;;5025402;28;20479;-81
2021/07/03 10:50:22;;;;;;;4.90;4.50;;;27.80;23.30;;;;;;5036084;28;20442;-80
2021/07/03 10:52:50;;;;;;;4.70;4.30;;;27.60;23.00;;;;;;5028852;28;20448;-81
2021/07/03 10:55:29;;;;;;;4.87;4.40;;;27.60;22.90;;;;;;5028836;28;20474;-80
2021/07/03 10:57:56;;;;;;;4.13;3.83;;;27.60;22.50;;;;;;5028564;28;20461;-81
2021/07/03 11:00:24;;;;;;;4.63;4.20;;;27.60;22.70;;;;;;5025697;28;20425;-81
2021/07/03 11:02:52;;;;;;;4.47;4.13;;;27.60;22.90;;;;;;5026916;28;20449;-81
2021/07/03 11:05:19;;;;;;;4.80;4.40;;;27.30;22.80;;;;;;5024633;28;20473;-82
2021/07/03 11:07:48;;;;;;;4.20;3.90;;;27.40;22.10;;;;;;5024514;28;20462;-81
2021/07/03 11:10:17;;;;;;;4.70;4.00;;;27.60;22.40;;;;;;5025211;28;20549;-81
2021/07/03 11:12:48;;;;;;;4.83;4.43;;;27.60;22.80;;;;;;5026454;28;20423;-80
2021/07/03 11:15:15;;;;;;;3.83;3.53;;;27.50;22.10;;;;;;5033184;28;20443;-81
2021/07/03 11:17:43;;;;;;;6.33;4.10;;;27.10;22.60;;;;;;5028066;28;20454;-82
2021/07/03 11:20:21;;;;;;;5.10;4.27;;;27.20;22.80;;;;;;5025051;28;20951;-80
2021/07/03 11:22:48;;;;;;;5.10;3.97;;;27.30;23.30;;;;;;5030112;28;20456;-80
2021/07/03 11:25:25;;;;;;;4.47;4.13;;;27.50;22.70;;;;;;5032278;28;20548;-81
2021/07/03 11:27:53;;;;;;;4.67;4.30;;;27.50;21.40;;;;;;5034225;28;20531;-80
2021/07/03 11:30:22;;;;;;;5.03;4.03;;;27.30;20.70;;;;;;5034711;28;20508;-80
2021/07/03 11:32:51;;;;;;;5.00;4.20;;;27.30;21.30;;;;;;5027357;28;20833;-81
2021/07/03 11:35:18;;;;;;;4.30;4.00;;;27.50;21.40;;;;;;5025404;28;20435;-82
2021/07/03 11:37:45;;;;;;;4.50;4.10;;;27.20;21.30;;;;;;5026768;28;20486;-81
2021/07/03 11:40:17;;;;;;;4.90;4.47;;;27.40;21.20;;;;;;5026469;28;20551;-81
2021/07/03 11:42:46;;;;;;;3.57;3.37;;;27.40;20.70;;;;;;5026643;28;20445;-79
2021/07/03 11:45:17;;;;;;;4.60;3.60;;;27.30;21.80;;;;;;5026716;28;20504;-81
2021/07/03 11:47:46;;;;;;;4.47;4.13;;;27.80;21.60;;;;;;5027768;28;20482;-82
2021/07/03 11:50:16;;;;;;;4.50;4.20;;;27.80;21.60;;;;;;5028292;28;20461;-80
2021/07/03 11:52:47;;;;;;;4.67;4.37;;;27.10;22.20;;;;;;5029070;28;20454;-82
2021/07/03 11:55:16;;;;;;;4.37;4.07;;;27.20;22.40;;;;;;5030585;28;20450;-83
2021/07/03 11:57:45;;;;;;;4.83;4.40;;;27.30;22.30;;;;;;5033685;28;20469;-79
2021/07/03 12:00:15;;;;;;;4.00;3.70;;;27.70;22.00;;;;;;5034542;28;20438;-81
2021/07/03 12:02:43;;;;;;;4.63;4.33;;;27.80;23.10;;;;;;5034713;28;20482;-80
2021/07/03 12:05:12;;;;;;;4.40;4.00;;;27.90;22.70;;;;;;5035255;28;20478;-81
2021/07/03 12:07:39;;;;;;;4.50;4.10;;;27.90;22.50;;;;;;5027277;28;20836;-81
2021/07/03 12:10:09;;;;;;;4.60;4.20;;;27.80;21.60;;;;;;5024758;28;20482;-80
2021/07/03 12:12:37;;;;;;;5.10;4.27;;;27.80;21.60;;;;;;5026465;28;20470;-80
2021/07/03 12:15:06;;;;;;;5.10;4.60;;;28.00;21.70;;;;;;5025848;28;20440;-82
2021/07/03 12:17:35;;;;;;;4.60;4.30;;;27.90;21.60;;;;;;5026257;28;20612;-82
2021/07/03 12:20:05;;;;;;;4.50;4.10;;;28.00;21.70;;;;;;5027291;28;20440;-81
2021/07/03 12:22:32;;;;;;;4.10;3.70;;;27.80;23.10;;;;;;5027314;28;20442;-82
2021/07/03 12:25:10;;;;;;;4.73;4.33;;;27.90;22.30;;;;;;5027432;28;20464;-80
2021/07/03 12:27:37;;;;;;;4.93;4.50;;;27.90;22.40;;;;;;5029796;28;20460;-80
2021/07/03 12:30:05;;;;;;;4.27;3.97;;;28.20;22.60;;;;;;5029424;28;20460;-81
2021/07/03 12:32:33;;;;;;;4.87;4.37;;;28.30;22.40;;;;;;5032576;28;20409;-81
2021/07/03 12:35:10;;;;;;;6.33;4.80;;;28.60;20.90;;;;;;5033793;28;20482;-82
2021/07/03 12:37:37;;;;;;;4.50;4.20;;;28.40;21.30;;;;;;5034214;28;20472;-80
2021/07/03 12:40:15;;;;;;;4.43;4.13;;;28.20;21.20;;;;;;5033971;28;20449;-82
2021/07/03 12:42:42;;;;;;;5.03;4.63;;;27.80;22.30;;;;;;5036090;28;20424;-80
2021/07/03 12:45:11;;;;;;;4.57;4.27;;;27.80;22.00;;;;;;5036880;28;20452;-80
2021/07/03 12:47:39;;;;;;;4.77;4.30;;;28.00;21.50;;;;;;5036975;28;20463;-80
2021/07/03 12:50:08;;;;;;;4.93;4.30;;;27.60;22.10;;;;;;5035263;28;20449;-81
2021/07/03 12:52:38;;;;;;;4.90;4.50;;;27.70;21.90;;;;;;5032622;28;20432;-82